Time;durP1;ratioP1;P1;durP2;ratioP2;P2;SDS_P1;SDS_P2;PMS_P1;PMS_P2;Temp;Humidity;BMP_temperature;BMP_pressure;BME280_temperature;BME280_humidity;BME280_pressure;Samples;Min_cycle;Max_cycle;Signal;HPM_P1;HPM_P2
2022/03/09 00:00:59;;;;;;;;;;;;;;;;;;4917011;29;20295;-78
2022/03/09 00:03:25;;;;;;;;;;;;;;;;;;4917946;29;19911;-79
2022/03/09 00:05:51;;;;;;;;;;;;;;;;;;4917123;29;20461;-79
2022/03/09 00:08:17;;;;;;;;;;;;;;;;;;4917592;29;19989;-79
2022/03/09 00:10:43;;;;;;;;;;;;;;;;;;4917629;29;20291;-79
2022/03/09 00:13:09;;;;;;;;;;;;;;;;;;4917231;29;19911;-79
2022/03/09 00:15:35;;;;;;;;;;;;;;;;;;4916445;29;19920;-79
2022/03/09 00:18:00;;;;;;;;;;;;;;;;;;4917063;29;19987;-79
2022/03/09 00:20:26;;;;;;;;;;;;;;;;;;4916990;29;19959;-79
2022/03/09 00:22:52;;;;;;;;;;;;;;;;;;4917245;29;19975;-79
2022/03/09 00:25:18;;;;;;;;;;;;;;;;;;4917158;29;19911;-79
2022/03/09 00:27:44;;;;;;;;;;;;;;;;;;4917180;29;19923;-79
2022/03/09 00:30:10;;;;;;;;;;;;;;;;;;4901423;29;20337;-79
2022/03/09 00:32:36;;;;;;;;;;;;;;;;;;4935996;29;20069;-79
2022/03/09 00:35:02;;;;;;;;;;;;;;;;;;4935698;29;19967;-79
2022/03/09 00:37:28;;;;;;;;;;;;;;;;;;4901662;29;20295;-79
2022/03/09 00:39:54;;;;;;;;;;;;;;;;;;4916987;29;20340;-79
2022/03/09 00:42:20;;;;;;;;;;;;;;;;;;4913624;29;19915;-79
2022/03/09 00:44:46;;;;;;;;;;;;;;;;;;4898100;29;19955;-79
2022/03/09 00:47:12;;;;;;;;;;;;;;;;;;4897820;29;20006;-78
2022/03/09 00:49:38;;;;;;;;;;;;;;;;;;4897441;29;19916;-79
2022/03/09 00:52:03;;;;;;;;;;;;;;;;;;4898158;29;19918;-79
2022/03/09 00:54:29;;;;;;;;;;;;;;;;;;4897897;29;20269;-78
2022/03/09 00:56:55;;;;;;;;;;;;;;;;;;4903546;29;19915;-78
2022/03/09 00:59:21;;;;;;;;;;;;;;;;;;4915732;29;19966;-78
2022/03/09 01:01:47;;;;;;;;;;;;;;;;;;4916504;29;19958;-78
2022/03/09 01:04:13;;;;;;;;;;;;;;;;;;4916545;29;19915;-78
2022/03/09 01:06:39;;;;;;;;;;;;;;;;;;4916499;29;19954;-78
2022/03/09 01:09:05;;;;;;;;;;;;;;;;;;4916616;29;20467;-79
2022/03/09 01:11:31;;;;;;;;;;;;;;;;;;4920892;29;20017;-78
2022/03/09 01:13:57;;;;;;;;;;;;;;;;;;4897749;29;19976;-79
2022/03/09 01:16:23;;;;;;;;;;;;;;;;;;4902888;29;19962;-79
2022/03/09 01:18:49;;;;;;;;;;;;;;;;;;4916461;29;20411;-79
2022/03/09 01:21:15;;;;;;;;;;;;;;;;;;4915957;29;19918;-78
2022/03/09 01:23:40;;;;;;;;;;;;;;;;;;4916329;29;19912;-79
2022/03/09 01:26:06;;;;;;;;;;;;;;;;;;4917008;29;19922;-79
2022/03/09 01:28:32;;;;;;;;;;;;;;;;;;4899084;29;20386;-79
2022/03/09 01:30:58;;;;;;;;;;;;;;;;;;4916271;29;19918;-79
2022/03/09 01:33:24;;;;;;;;;;;;;;;;;;4915724;29;20003;-79
2022/03/09 01:35:50;;;;;;;;;;;;;;;;;;4916145;29;20001;-79
2022/03/09 01:38:16;;;;;;;;;;;;;;;;;;4916177;29;19917;-78
2022/03/09 01:40:42;;;;;;;;;;;;;;;;;;4910532;29;20299;-79
2022/03/09 01:43:08;;;;;;;;;;;;;;;;;;4880441;29;19920;-79
2022/03/09 01:45:34;;;;;;;;;;;;;;;;;;4896927;29;19912;-78
2022/03/09 01:47:59;;;;;;;;;;;;;;;;;;4897378;29;19911;-79
2022/03/09 01:50:25;;;;;;;;;;;;;;;;;;4897035;29;19923;-79
2022/03/09 01:52:51;;;;;;;;;;;;;;;;;;4880343;29;19922;-79
2022/03/09 01:55:17;;;;;;;;;;;;;;;;;;4911516;29;19919;-79
2022/03/09 01:57:43;;;;;;;;;;;;;;;;;;4915844;29;19957;-79
2022/03/09 02:00:09;;;;;;;;;;;;;;;;;;4916091;29;20369;-79
2022/03/09 02:02:35;;;;;;;;;;;;;;;;;;4915621;29;20079;-78
2022/03/09 02:05:01;;;;;;;;;;;;;;;;;;4916015;29;19908;-78
2022/03/09 02:10:12;;;;;;;;;;;;;;;;;;4916628;29;19978;-79
2022/03/09 02:12:38;;;;;;;;;;;;;;;;;;4917924;29;20367;-79
2022/03/09 02:15:04;;;;;;;;;;;;;;;;;;4919386;29;19911;-79
2022/03/09 02:17:30;;;;;;;;;;;;;;;;;;4922193;29;19950;-79
2022/03/09 02:19:58;;;;;;;;;;;;;;;;;;4929024;29;20390;-78
2022/03/09 02:22:24;;;;;;;;;;;;;;;;;;4937899;29;19945;-78
2022/03/09 02:24:50;;;;;;;;;;;;;;;;;;4938781;29;19982;-78
2022/03/09 02:27:16;;;;;;;;;;;;;;;;;;4912082;29;19915;-78
2022/03/09 02:29:41;;;;;;;;;;;;;;;;;;4900094;29;19951;-79
2022/03/09 02:32:08;;;;;;;;;;;;;;;;;;4900666;29;20359;-79
2022/03/09 02:34:34;;;;;;;;;;;;;;;;;;4900341;29;19915;-78
2022/03/09 02:37:00;;;;;;;;;;;;;;;;;;4908358;29;19911;-79
2022/03/09 02:39:25;;;;;;;;;;;;;;;;;;4919094;29;19912;-78
2022/03/09 02:41:51;;;;;;;;;;;;;;;;;;4919037;29;19919;-78
2022/03/09 02:44:17;;;;;;;;;;;;;;;;;;4918843;29;19914;-78
2022/03/09 02:46:43;;;;;;;;;;;;;;;;;;4895901;29;19934;-79
2022/03/09 02:49:09;;;;;;;;;;;;;;;;;;4883138;29;19916;-78
2022/03/09 02:51:35;;;;;;;;;;;;;;;;;;4900156;29;19938;-79
2022/03/09 02:54:01;;;;;;;;;;;;;;;;;;4913321;29;20311;-79
2022/03/09 02:56:27;;;;;;;;;;;;;;;;;;4936838;29;19922;-78
2022/03/09 02:58:53;;;;;;;;;;;;;;;;;;4937489;29;19938;-78
2022/03/09 03:01:19;;;;;;;;;;;;;;;;;;4937769;29;19910;-78
2022/03/09 03:03:45;;;;;;;;;;;;;;;;;;4937872;29;20363;-78
2022/03/09 03:06:11;;;;;;;;;;;;;;;;;;4927205;29;19915;-78
2022/03/09 03:08:38;;;;;;;;;;;;;;;;;;4910227;29;19919;-79
2022/03/09 03:11:03;;;;;;;;;;;;;;;;;;4899967;29;19919;-78
2022/03/09 03:13:29;;;;;;;;;;;;;;;;;;4899003;29;19916;-79
2022/03/09 03:15:55;;;;;;;;;;;;;;;;;;4901461;29;19915;-78
2022/03/09 03:18:21;;;;;;;;;;;;;;;;;;4926248;29;20323;-78
2022/03/09 03:20:48;;;;;;;;;;;;;;;;;;4937723;29;19958;-78
2022/03/09 03:23:14;;;;;;;;;;;;;;;;;;4936181;29;20299;-78
2022/03/09 03:25:40;;;;;;;;;;;;;;;;;;4937034;29;19911;-78
2022/03/09 03:28:06;;;;;;;;;;;;;;;;;;4925593;29;19916;-78
2022/03/09 03:30:32;;;;;;;;;;;;;;;;;;4899393;29;19978;-78
2022/03/09 03:32:57;;;;;;;;;;;;;;;;;;4899315;29;19968;-78
2022/03/09 03:35:23;;;;;;;;;;;;;;;;;;4899391;29;20402;-78
2022/03/09 03:37:49;;;;;;;;;;;;;;;;;;4911946;29;20428;-78
2022/03/09 03:40:15;;;;;;;;;;;;;;;;;;4917955;29;20434;-78
2022/03/09 03:42:41;;;;;;;;;;;;;;;;;;4917482;29;19958;-78
2022/03/09 03:45:07;;;;;;;;;;;;;;;;;;4918087;29;19967;-78
2022/03/09 03:47:33;;;;;;;;;;;;;;;;;;4917312;29;20502;-78
2022/03/09 03:49:59;;;;;;;;;;;;;;;;;;4937378;29;19915;-78
2022/03/09 03:52:25;;;;;;;;;;;;;;;;;;4936950;29;19915;-78
2022/03/09 03:54:50;;;;;;;;;;;;;;;;;;4936472;29;20383;-78
2022/03/09 03:57:16;;;;;;;;;;;;;;;;;;4886305;29;19915;-78
2022/03/09 03:59:42;;;;;;;;;;;;;;;;;;4898753;29;19987;-79
2022/03/09 04:02:08;;;;;;;;;;;;;;;;;;4898847;29;19912;-78
2022/03/09 04:04:34;;;;;;;;;;;;;;;;;;4898758;29;20007;-79
2022/03/09 04:07:00;;;;;;;;;;;;;;;;;;4902410;29;20236;-78
2022/03/09 04:09:26;;;;;;;;;;;;;;;;;;4931200;29;20125;-78
2022/03/09 04:11:52;;;;;;;;;;;;;;;;;;4935924;29;19915;-78
2022/03/09 04:14:22;;;;;;;;;;;;;;;;;;4936410;29;19918;-78
2022/03/09 04:16:48;;;;;;;;;;;;;;;;;;4925261;29;19915;-78
2022/03/09 04:19:14;;;;;;;;;;;;;;;;;;4917357;29;19959;-78
2022/03/09 04:21:39;;;;;;;;;;;;;;;;;;4917291;29;20268;-78
2022/03/09 04:24:05;;;;;;;;;;;;;;;;;;4917377;29;19911;-79
2022/03/09 04:26:31;;;;;;;;;;;;;;;;;;4915691;29;19972;-78
2022/03/09 04:28:57;;;;;;;;;;;;;;;;;;4934787;29;20078;-79
2022/03/09 04:31:23;;;;;;;;;;;;;;;;;;4936215;29;19981;-79
2022/03/09 04:33:49;;;;;;;;;;;;;;;;;;4935711;29;19911;-78
2022/03/09 04:36:15;;;;;;;;;;;;;;;;;;4934326;29;19941;-78
2022/03/09 04:38:41;;;;;;;;;;;;;;;;;;4936006;29;19962;-78
2022/03/09 04:41:07;;;;;;;;;;;;;;;;;;4935648;29;19918;-79
2022/03/09 04:43:33;;;;;;;;;;;;;;;;;;4935847;29;19918;-79
2022/03/09 04:45:58;;;;;;;;;;;;;;;;;;4927479;29;20368;-78
2022/03/09 04:48:24;;;;;;;;;;;;;;;;;;4905445;29;19950;-78
2022/03/09 04:50:50;;;;;;;;;;;;;;;;;;4897859;29;19912;-79
2022/03/09 04:53:16;;;;;;;;;;;;;;;;;;4897856;29;20368;-78
2022/03/09 04:55:42;;;;;;;;;;;;;;;;;;4901901;29;19915;-79
2022/03/09 04:58:08;;;;;;;;;;;;;;;;;;4916846;29;19911;-79
2022/03/09 05:00:34;;;;;;;;;;;;;;;;;;4916809;29;20296;-78
2022/03/09 05:03:00;;;;;;;;;;;;;;;;;;4916921;29;19938;-78
2022/03/09 05:05:26;;;;;;;;;;;;;;;;;;4916137;29;19946;-78
2022/03/09 05:07:52;;;;;;;;;;;;;;;;;;4912907;29;20433;-78
2022/03/09 05:10:18;;;;;;;;;;;;;;;;;;4880380;29;19919;-78
2022/03/09 05:12:44;;;;;;;;;;;;;;;;;;4896017;29;19923;-78
2022/03/09 05:15:10;;;;;;;;;;;;;;;;;;4897525;29;19916;-80
2022/03/09 05:17:36;;;;;;;;;;;;;;;;;;4895850;29;19922;-77
2022/03/09 05:20:02;;;;;;;;;;;;;;;;;;4916117;29;19911;-76
2022/03/09 05:22:27;;;;;;;;;;;;;;;;;;4916078;29;20311;-77
2022/03/09 05:24:53;;;;;;;;;;;;;;;;;;4915804;29;19911;-76
2022/03/09 05:27:19;;;;;;;;;;;;;;;;;;4913767;29;19921;-77
2022/03/09 05:29:45;;;;;;;;;;;;;;;;;;4935132;29;19974;-77
2022/03/09 05:32:11;;;;;;;;;;;;;;;;;;4935060;29;19915;-77
2022/03/09 05:34:37;;;;;;;;;;;;;;;;;;4935523;29;19959;-76
2022/03/09 05:37:03;;;;;;;;;;;;;;;;;;4910192;29;20289;-77
2022/03/09 05:39:29;;;;;;;;;;;;;;;;;;4896915;29;19912;-77
2022/03/09 05:41:55;;;;;;;;;;;;;;;;;;4897251;29;19908;-77
2022/03/09 05:44:21;;;;;;;;;;;;;;;;;;4920333;29;19915;-77
2022/03/09 05:46:47;;;;;;;;;;;;;;;;;;4918718;29;19915;-79
2022/03/09 05:49:12;;;;;;;;;;;;;;;;;;4919528;29;19919;-77
2022/03/09 05:51:38;;;;;;;;;;;;;;;;;;4909014;29;19922;-77
2022/03/09 05:54:04;;;;;;;;;;;;;;;;;;4929904;29;19915;-77
2022/03/09 05:56:30;;;;;;;;;;;;;;;;;;4917094;29;19915;-77
2022/03/09 05:58:56;;;;;;;;;;;;;;;;;;4931704;29;19911;-78
2022/03/09 06:01:23;;;;;;;;;;;;;;;;;;4917306;29;20336;-77
2022/03/09 06:03:49;;;;;;;;;;;;;;;;;;4934087;29;20401;-77
2022/03/09 06:06:15;;;;;;;;;;;;;;;;;;4926549;29;19954;-78
2022/03/09 06:08:41;;;;;;;;;;;;;;;;;;4933923;29;19917;-77
2022/03/09 06:11:07;;;;;;;;;;;;;;;;;;4933870;29;20367;-79
2022/03/09 06:13:33;;;;;;;;;;;;;;;;;;4936840;29;19911;-78
2022/03/09 06:15:59;;;;;;;;;;;;;;;;;;4932237;29;19921;-77
2022/03/09 06:18:25;;;;;;;;;;;;;;;;;;4934155;29;20283;-77
2022/03/09 07:12:47;;;;;;;;;;;;;;;;;;4932784;23;20010;-77
2022/03/09 07:15:13;;;;;;;;;;;;;;;;;;4918355;29;19911;-75
2022/03/09 07:17:39;;;;;;;;;;;;;;;;;;4919392;29;19914;-76
2022/03/09 07:20:05;;;;;;;;;;;;;;;;;;4932383;29;20386;-76
2022/03/09 07:22:31;;;;;;;;;;;;;;;;;;4882126;29;19931;-77
2022/03/09 07:24:57;;;;;;;;;;;;;;;;;;4908508;29;20379;-76
2022/03/09 07:27:22;;;;;;;;;;;;;;;;;;4906628;29;19912;-75
2022/03/09 07:29:48;;;;;;;;;;;;;;;;;;4904299;29;19919;-80
2022/03/09 07:32:15;;;;;;;;;;;;;;;;;;4900053;29;20315;-76
2022/03/09 07:34:41;;;;;;;;;;;;;;;;;;4909279;29;19911;-78
2022/03/09 07:37:07;;;;;;;;;;;;;;;;;;4897705;29;19922;-78
2022/03/09 07:39:33;;;;;;;;;;;;;;;;;;4898372;29;19923;-75
2022/03/09 07:41:59;;;;;;;;;;;;;;;;;;4882298;29;19963;-77
2022/03/09 07:44:25;;;;;;;;;;;;;;;;;;4898054;29;19926;-74
2022/03/09 07:46:51;;;;;;;;;;;;;;;;;;4898907;29;20158;-77
2022/03/09 07:49:17;;;;;;;;;;;;;;;;;;4898275;29;20060;-75
2022/03/09 07:51:43;;;;;;;;;;;;;;;;;;4907426;29;19923;-77
2022/03/09 07:54:08;;;;;;;;;;;;;;;;;;4898800;29;19959;-77
2022/03/09 07:56:37;;;;;;;;;;;;;;;;;;4898851;29;20308;-77
2022/03/09 07:59:03;;;;;;;;;;;;;;;;;;4899070;29;19916;-78
2022/03/09 08:01:29;;;;;;;;;;;;;;;;;;4898451;29;20336;-75
2022/03/09 08:03:55;;;;;;;;;;;;;;;;;;4898183;29;19912;-78
2022/03/09 08:06:21;;;;;;;;;;;;;;;;;;4897988;29;19912;-78
2022/03/09 08:08:47;;;;;;;;;;;;;;;;;;4881143;29;19969;-77
2022/03/09 08:11:13;;;;;;;;;;;;;;;;;;4904537;29;20411;-76
2022/03/09 08:13:39;;;;;;;;;;;;;;;;;;4905544;29;20002;-76
2022/03/09 08:16:05;;;;;;;;;;;;;;;;;;4900658;29;20378;-76
2022/03/09 08:18:31;;;;;;;;;;;;;;;;;;4897257;29;20010;-76
2022/03/09 08:20:57;;;;;;;;;;;;;;;;;;4887588;29;19912;-77
2022/03/09 08:23:23;;;;;;;;;;;;;;;;;;4885011;29;19915;-77
2022/03/09 08:25:49;;;;;;;;;;;;;;;;;;4899799;29;19919;-79
2022/03/09 08:28:14;;;;;;;;;;;;;;;;;;4905490;29;20429;-79
2022/03/09 08:30:41;;;;;;;;;;;;;;;;;;4917321;29;19989;-76
2022/03/09 08:33:07;;;;;;;;;;;;;;;;;;4914839;29;19911;-77
2022/03/09 08:35:33;;;;;;;;;;;;;;;;;;4907537;29;19912;-77
2022/03/09 08:37:59;;;;;;;;;;;;;;;;;;4916772;29;19911;-77
2022/03/09 09:53:07;;;;;;;;;;;;;;;;;;5495422;23;20156;-74
2022/03/09 09:55:33;;;;;;;;;;;;;;;;;;4896195;29;19915;-74
2022/03/09 09:57:59;;;;;;;;;;;;;;;;;;4897455;29;20398;-73
2022/03/09 10:00:25;;;;;;;;;;;;;;;;;;4897453;29;19912;-77
2022/03/09 10:02:51;;;;;;;;;;;;;;;;;;4882719;29;20011;-76
2022/03/09 10:05:17;;;;;;;;;;;;;;;;;;4883145;29;19923;-77
2022/03/09 10:07:42;;;;;;;;;;;;;;;;;;4894899;29;20355;-76
2022/03/09 10:10:08;;;;;;;;;;;;;;;;;;4889408;29;19932;-77
2022/03/09 10:12:34;;;;;;;;;;;;;;;;;;4888077;29;20368;-74
2022/03/09 10:15:00;;;;;;;;;;;;;;;;;;4891706;29;19911;-76
2022/03/09 10:17:26;;;;;;;;;;;;;;;;;;4894676;29;19911;-76
2022/03/09 10:19:52;;;;;;;;;;;;;;;;;;4894695;29;19915;-73
2022/03/09 10:22:18;;;;;;;;;;;;;;;;;;4888319;29;19916;-76
2022/03/09 10:24:44;;;;;;;;;;;;;;;;;;4887690;29;20006;-77
2022/03/09 10:27:10;;;;;;;;;;;;;;;;;;4888074;29;20054;-76
2022/03/09 10:29:36;;;;;;;;;;;;;;;;;;4891839;29;20395;-77
2022/03/09 10:32:02;;;;;;;;;;;;;;;;;;4894440;29;19912;-77
2022/03/09 10:34:29;;;;;;;;;;;;;;;;;;4888017;29;19912;-77
2022/03/09 10:36:55;;;;;;;;;;;;;;;;;;4882452;29;20380;-76
2022/03/09 10:39:21;;;;;;;;;;;;;;;;;;4899054;29;20378;-77
2022/03/09 10:41:47;;;;;;;;;;;;;;;;;;4899845;29;20316;-76
2022/03/09 10:44:13;;;;;;;;;;;;;;;;;;4890382;29;19990;-76
2022/03/09 10:46:39;;;;;;;;;;;;;;;;;;4898656;29;19953;-77
2022/03/09 10:49:06;;;;;;;;;;;;;;;;;;4896053;29;20053;-76
2022/03/09 10:51:32;;;;;;;;;;;;;;;;;;4897278;29;20322;-77
2022/03/09 10:53:58;;;;;;;;;;;;;;;;;;4894680;29;20014;-75
2022/03/09 10:56:23;;;;;;;;;;;;;;;;;;4893513;29;20051;-75
2022/03/09 10:58:49;;;;;;;;;;;;;;;;;;4900217;29;20425;-74
2022/03/09 11:01:15;;;;;;;;;;;;;;;;;;4886251;29;19922;-76
2022/03/09 11:03:43;;;;;;;;;;;;;;;;;;4895122;29;19999;-77
2022/03/09 11:06:09;;;;;;;;;;;;;;;;;;4893499;29;20423;-74
2022/03/09 11:08:35;;;;;;;;;;;;;;;;;;4892776;29;20000;-76
2022/03/09 11:11:02;;;;;;;;;;;;;;;;;;4892344;29;20027;-76
2022/03/09 11:13:28;;;;;;;;;;;;;;;;;;4897846;29;19920;-77
2022/03/09 11:15:54;;;;;;;;;;;;;;;;;;4899461;29;19915;-77
2022/03/09 11:18:20;;;;;;;;;;;;;;;;;;4893174;29;19923;-76
2022/03/09 11:20:46;;;;;;;;;;;;;;;;;;4886310;29;19916;-77
2022/03/09 11:23:12;;;;;;;;;;;;;;;;;;4886225;29;19998;-77
2022/03/09 11:25:38;;;;;;;;;;;;;;;;;;4896096;29;20301;-76
2022/03/09 11:28:04;;;;;;;;;;;;;;;;;;4898491;29;19918;-76
2022/03/09 11:30:30;;;;;;;;;;;;;;;;;;4895347;29;20340;-77
2022/03/09 11:32:56;;;;;;;;;;;;;;;;;;4899432;29;19958;-77
2022/03/09 11:35:22;;;;;;;;;;;;;;;;;;4900348;29;20336;-77
2022/03/09 11:37:48;;;;;;;;;;;;;;;;;;4900169;29;19907;-77
2022/03/09 11:40:14;;;;;;;;;;;;;;;;;;4899807;29;19912;-78
2022/03/09 11:42:41;;;;;;;;;;;;;;;;;;4898461;29;20436;-79
2022/03/09 11:45:07;;;;;;;;;;;;;;;;;;4895507;29;19920;-76
2022/03/09 11:47:33;;;;;;;;;;;;;;;;;;4899932;29;19935;-77
2022/03/09 11:49:59;;;;;;;;;;;;;;;;;;4899572;29;19916;-77
2022/03/09 11:52:25;;;;;;;;;;;;;;;;;;4911911;29;19915;-76
2022/03/09 11:54:55;;;;;;;;;;;;;;;;;;4894484;29;20398;-77
2022/03/09 11:57:23;;;;;;;;;;;;;;;;;;4896791;29;19934;-76
2022/03/09 11:59:48;;;;;;;;;;;;;;;;;;4892236;29;19926;-77
2022/03/09 12:02:14;;;;;;;;;;;;;;;;;;4890763;29;19911;-76
2022/03/09 12:04:45;;;;;;;;;;;;;;;;;;4891334;29;19919;-76
2022/03/09 12:07:11;;;;;;;;;;;;;;;;;;4890862;29;20278;-79
2022/03/09 12:09:37;;;;;;;;;;;;;;;;;;4889787;29;19916;-77
2022/03/09 12:12:02;;;;;;;;;;;;;;;;;;4899627;29;19971;-76
2022/03/09 12:14:29;;;;;;;;;;;;;;;;;;4898864;29;19916;-77
2022/03/09 12:16:55;;;;;;;;;;;;;;;;;;4899022;29;19923;-80
2022/03/09 12:19:21;;;;;;;;;;;;;;;;;;4899096;29;19919;-76
2022/03/09 12:21:47;;;;;;;;;;;;;;;;;;4898893;29;20375;-72
2022/03/09 12:24:13;;;;;;;;;;;;;;;;;;4898280;29;20018;-71
2022/03/09 12:26:39;;;;;;;;;;;;;;;;;;4898025;29;19911;-76
2022/03/09 12:29:05;;;;;;;;;;;;;;;;;;4895488;29;19916;-77
2022/03/09 12:31:31;;;;;;;;;;;;;;;;;;4887313;29;19918;-77
2022/03/09 12:33:58;;;;;;;;;;;;;;;;;;4889165;29;21593;-76
2022/03/09 12:36:25;;;;;;;;;;;;;;;;;;4882270;29;19984;-76
2022/03/09 12:38:51;;;;;;;;;;;;;;;;;;4890298;29;19915;-76
2022/03/09 12:41:16;;;;;;;;;;;;;;;;;;4888160;29;19934;-76
2022/03/09 12:43:42;;;;;;;;;;;;;;;;;;4890214;29;19912;-76
2022/03/09 12:46:08;;;;;;;;;;;;;;;;;;4888996;29;19919;-76
2022/03/09 12:48:34;;;;;;;;;;;;;;;;;;4872828;29;19934;-76
2022/03/09 12:51:00;;;;;;;;;;;;;;;;;;4888407;29;19922;-76
2022/03/09 12:53:26;;;;;;;;;;;;;;;;;;4892336;29;20294;-76
2022/03/09 12:55:52;;;;;;;;;;;;;;;;;;4891752;29;19923;-76
2022/03/09 12:58:18;;;;;;;;;;;;;;;;;;4897388;29;19911;-76
2022/03/09 13:00:44;;;;;;;;;;;;;;;;;;4894520;29;19918;-76
2022/03/09 13:03:11;;;;;;;;;;;;;;;;;;4888003;29;19911;-76
2022/03/09 13:05:38;;;;;;;;;;;;;;;;;;4883219;29;19998;-76
2022/03/09 13:08:05;;;;;;;;;;;;;;;;;;4886474;29;19911;-76
2022/03/09 13:10:31;;;;;;;;;;;;;;;;;;4887626;29;19922;-76
2022/03/09 13:12:57;;;;;;;;;;;;;;;;;;4888335;29;20010;-76
2022/03/09 13:15:22;;;;;;;;;;;;;;;;;;4891801;29;19911;-76
2022/03/09 13:17:48;;;;;;;;;;;;;;;;;;4886967;29;19916;-76
2022/03/09 13:20:14;;;;;;;;;;;;;;;;;;4887020;29;20321;-76
2022/03/09 13:22:40;;;;;;;;;;;;;;;;;;4893433;29;20336;-76
2022/03/09 13:25:06;;;;;;;;;;;;;;;;;;4890347;29;19954;-76
2022/03/09 13:27:32;;;;;;;;;;;;;;;;;;4885365;29;20007;-76
2022/03/09 13:29:58;;;;;;;;;;;;;;;;;;4893877;29;19915;-76
2022/03/09 13:32:24;;;;;;;;;;;;;;;;;;4886184;29;20035;-76
2022/03/09 13:34:50;;;;;;;;;;;;;;;;;;4893091;29;19919;-76
2022/03/09 13:37:20;;;;;;;;;;;;;;;;;;4886448;29;19912;-76
2022/03/09 13:39:49;;;;;;;;;;;;;;;;;;4887816;29;19919;-75
2022/03/09 13:42:15;;;;;;;;;;;;;;;;;;4889954;29;20052;-76
2022/03/09 13:44:41;;;;;;;;;;;;;;;;;;4887443;29;19960;-76
2022/03/09 13:47:07;;;;;;;;;;;;;;;;;;4888239;29;19927;-76
2022/03/09 13:49:33;;;;;;;;;;;;;;;;;;4886427;29;19916;-76
2022/03/09 13:51:59;;;;;;;;;;;;;;;;;;4893547;29;19912;-76
2022/03/09 13:54:28;;;;;;;;;;;;;;;;;;4888274;29;20286;-76
2022/03/09 13:56:53;;;;;;;;;;;;;;;;;;4887742;29;19916;-76
2022/03/09 13:59:19;;;;;;;;;;;;;;;;;;4893120;29;20299;-76
2022/03/09 14:01:47;;;;;;;;;;;;;;;;;;4888630;29;19912;-76
2022/03/09 14:04:13;;;;;;;;;;;;;;;;;;4892627;29;19968;-76
2022/03/09 14:06:39;;;;;;;;;;;;;;;;;;4896564;29;19915;-76
2022/03/09 14:09:05;;;;;;;;;;;;;;;;;;4906670;29;19967;-76
2022/03/09 14:11:31;;;;;;;;;;;;;;;;;;4893724;29;20331;-76
2022/03/09 14:13:57;;;;;;;;;;;;;;;;;;4891717;29;19912;-76
2022/03/09 14:16:23;;;;;;;;;;;;;;;;;;4890136;29;19912;-76
2022/03/09 14:18:49;;;;;;;;;;;;;;;;;;4890271;29;19915;-76
2022/03/09 14:21:15;;;;;;;;;;;;;;;;;;4899400;29;19912;-75
2022/03/09 14:23:41;;;;;;;;;;;;;;;;;;4899483;29;19911;-76
2022/03/09 14:26:07;;;;;;;;;;;;;;;;;;4894859;29;19911;-75
2022/03/09 14:28:33;;;;;;;;;;;;;;;;;;4896069;29;19911;-75
2022/03/09 14:30:58;;;;;;;;;;;;;;;;;;4889290;29;19915;-76
2022/03/09 14:33:24;;;;;;;;;;;;;;;;;;4892178;29;19933;-76
2022/03/09 14:35:50;;;;;;;;;;;;;;;;;;4891435;29;19926;-77
2022/03/09 14:38:16;;;;;;;;;;;;;;;;;;4891211;29;20387;-76
2022/03/09 14:40:42;;;;;;;;;;;;;;;;;;4893571;29;20332;-76
2022/03/09 14:43:08;;;;;;;;;;;;;;;;;;4874384;29;19933;-76
2022/03/09 14:45:34;;;;;;;;;;;;;;;;;;4888251;29;19912;-76
2022/03/09 14:48:02;;;;;;;;;;;;;;;;;;4890466;29;19912;-76
2022/03/09 14:50:28;;;;;;;;;;;;;;;;;;4884348;29;19955;-76
2022/03/09 14:52:54;;;;;;;;;;;;;;;;;;4889457;29;20442;-76
2022/03/09 14:55:20;;;;;;;;;;;;;;;;;;4888648;29;19916;-76
2022/03/09 14:57:48;;;;;;;;;;;;;;;;;;4888763;29;20002;-76
2022/03/09 15:00:14;;;;;;;;;;;;;;;;;;4891342;29;20279;-76
2022/03/09 15:02:39;;;;;;;;;;;;;;;;;;4894894;29;20439;-77
2022/03/09 15:05:05;;;;;;;;;;;;;;;;;;4895556;29;19915;-79
2022/03/09 15:07:31;;;;;;;;;;;;;;;;;;4889516;29;20369;-77
2022/03/09 15:10:01;;;;;;;;;;;;;;;;;;4895771;29;19927;-77
2022/03/09 15:12:28;;;;;;;;;;;;;;;;;;4889609;29;20006;-76
2022/03/09 15:14:54;;;;;;;;;;;;;;;;;;4895187;29;19927;-74
2022/03/09 15:17:20;;;;;;;;;;;;;;;;;;4889968;29;19912;-76
2022/03/09 15:19:46;;;;;;;;;;;;;;;;;;4891707;29;19912;-77
2022/03/09 15:22:12;;;;;;;;;;;;;;;;;;4898405;29;19919;-76
2022/03/09 15:24:38;;;;;;;;;;;;;;;;;;4895908;29;19942;-76
2022/03/09 15:27:04;;;;;;;;;;;;;;;;;;4889287;29;19927;-76
2022/03/09 15:29:30;;;;;;;;;;;;;;;;;;4898027;29;19993;-75
2022/03/09 15:31:56;;;;;;;;;;;;;;;;;;4891608;29;20419;-75
2022/03/09 15:34:24;;;;;;;;;;;;;;;;;;4888835;29;20010;-76
2022/03/09 15:36:50;;;;;;;;;;;;;;;;;;4889583;29;19912;-75
2022/03/09 15:39:16;;;;;;;;;;;;;;;;;;4896797;29;19938;-75
2022/03/09 15:41:42;;;;;;;;;;;;;;;;;;4891762;29;19947;-75
2022/03/09 15:44:08;;;;;;;;;;;;;;;;;;4885189;29;19912;-75
2022/03/09 15:46:35;;;;;;;;;;;;;;;;;;4891387;29;19924;-75
2022/03/09 15:49:02;;;;;;;;;;;;;;;;;;4892488;29;19912;-76
2022/03/09 15:51:28;;;;;;;;;;;;;;;;;;4884482;29;20412;-76
2022/03/09 15:53:54;;;;;;;;;;;;;;;;;;4887730;29;19970;-76
2022/03/09 15:56:20;;;;;;;;;;;;;;;;;;4888143;29;19916;-78
2022/03/09 15:58:46;;;;;;;;;;;;;;;;;;4889329;29;19927;-75
2022/03/09 16:01:12;;;;;;;;;;;;;;;;;;4887010;29;20285;-75
2022/03/09 16:03:38;;;;;;;;;;;;;;;;;;4891455;29;19919;-76
2022/03/09 16:06:04;;;;;;;;;;;;;;;;;;4894175;29;19928;-76
2022/03/09 16:08:30;;;;;;;;;;;;;;;;;;4898183;29;19919;-75
2022/03/09 16:10:56;;;;;;;;;;;;;;;;;;4907508;29;19915;-77
2022/03/09 16:13:21;;;;;;;;;;;;;;;;;;4882848;29;19987;-76
2022/03/09 16:15:47;;;;;;;;;;;;;;;;;;4896239;29;19926;-75
2022/03/09 16:18:13;;;;;;;;;;;;;;;;;;4887892;29;20376;-75
2022/03/09 16:20:39;;;;;;;;;;;;;;;;;;4892543;29;19912;-75
2022/03/09 16:23:05;;;;;;;;;;;;;;;;;;4890958;29;19912;-75
2022/03/09 16:25:31;;;;;;;;;;;;;;;;;;4891125;29;20339;-79
2022/03/09 16:27:57;;;;;;;;;;;;;;;;;;4884485;29;19994;-76
2022/03/09 16:30:23;;;;;;;;;;;;;;;;;;4887964;29;19938;-75
2022/03/09 16:32:49;;;;;;;;;;;;;;;;;;4883119;29;20432;-77
2022/03/09 16:35:15;;;;;;;;;;;;;;;;;;4882609;29;20376;-76
2022/03/09 16:37:41;;;;;;;;;;;;;;;;;;4894008;29;19922;-75
2022/03/09 16:40:07;;;;;;;;;;;;;;;;;;4885140;29;19951;-75
2022/03/09 16:42:36;;;;;;;;;;;;;;;;;;4888727;29;20376;-76
2022/03/09 16:45:01;;;;;;;;;;;;;;;;;;4894019;29;19920;-75
2022/03/09 16:47:27;;;;;;;;;;;;;;;;;;4895830;29;20307;-75
2022/03/09 16:49:53;;;;;;;;;;;;;;;;;;4887320;29;19926;-75
2022/03/09 16:52:19;;;;;;;;;;;;;;;;;;4888189;29;19955;-75
2022/03/09 16:54:45;;;;;;;;;;;;;;;;;;4887589;29;19920;-75
2022/03/09 16:57:12;;;;;;;;;;;;;;;;;;4887590;29;20364;-76
2022/03/09 16:59:38;;;;;;;;;;;;;;;;;;4895990;29;19922;-77
2022/03/09 17:02:04;;;;;;;;;;;;;;;;;;4890820;29;19926;-75
2022/03/09 17:04:30;;;;;;;;;;;;;;;;;;4892079;29;20277;-75
2022/03/09 17:06:56;;;;;;;;;;;;;;;;;;4886765;29;19911;-75
2022/03/09 17:09:22;;;;;;;;;;;;;;;;;;4887025;29;19915;-75
2022/03/09 17:11:48;;;;;;;;;;;;;;;;;;4888127;29;19919;-75
2022/03/09 17:14:14;;;;;;;;;;;;;;;;;;4887138;29;19912;-75
2022/03/09 17:16:40;;;;;;;;;;;;;;;;;;4884068;29;19966;-75
2022/03/09 17:19:06;;;;;;;;;;;;;;;;;;4888284;29;20341;-76
2022/03/09 17:21:32;;;;;;;;;;;;;;;;;;4884149;29;19915;-74
2022/03/09 17:23:58;;;;;;;;;;;;;;;;;;4888923;29;19912;-75
2022/03/09 17:26:24;;;;;;;;;;;;;;;;;;4888143;29;19926;-74
2022/03/09 17:28:50;;;;;;;;;;;;;;;;;;4883249;29;19946;-75
2022/03/09 17:31:16;;;;;;;;;;;;;;;;;;4886400;29;19916;-75
2022/03/09 17:33:42;;;;;;;;;;;;;;;;;;4891057;29;19964;-74
2022/03/09 17:36:08;;;;;;;;;;;;;;;;;;4886330;29;19919;-74
2022/03/09 17:38:36;;;;;;;;;;;;;;;;;;4885735;29;19995;-74
2022/03/09 17:41:02;;;;;;;;;;;;;;;;;;4890877;29;20432;-74
2022/03/09 17:43:28;;;;;;;;;;;;;;;;;;4889585;29;19994;-75
2022/03/09 17:45:54;;;;;;;;;;;;;;;;;;4889903;29;19915;-75
2022/03/09 17:48:20;;;;;;;;;;;;;;;;;;4885125;29;19912;-75
2022/03/09 17:50:47;;;;;;;;;;;;;;;;;;4887181;29;19923;-77
2022/03/09 17:53:13;;;;;;;;;;;;;;;;;;4892200;29;19978;-77
2022/03/09 17:55:38;;;;;;;;;;;;;;;;;;4889290;29;19947;-75
2022/03/09 17:58:04;;;;;;;;;;;;;;;;;;4884712;29;20482;-75
2022/03/09 18:00:30;;;;;;;;;;;;;;;;;;4887416;29;20002;-75
2022/03/09 18:02:56;;;;;;;;;;;;;;;;;;4894045;29;19912;-75
2022/03/09 18:05:22;;;;;;;;;;;;;;;;;;4889807;29;20336;-75
2022/03/09 18:07:48;;;;;;;;;;;;;;;;;;4893029;29;19916;-76
2022/03/09 18:10:14;;;;;;;;;;;;;;;;;;4883701;29;20383;-77
2022/03/09 18:12:40;;;;;;;;;;;;;;;;;;4894325;29;20009;-76
2022/03/09 18:15:06;;;;;;;;;;;;;;;;;;4890998;29;19927;-75
2022/03/09 18:17:32;;;;;;;;;;;;;;;;;;4895234;29;19919;-75
2022/03/09 18:19:59;;;;;;;;;;;;;;;;;;4889579;29;20043;-75
2022/03/09 18:22:25;;;;;;;;;;;;;;;;;;4896058;29;19916;-76
2022/03/09 18:24:50;;;;;;;;;;;;;;;;;;4880006;29;19926;-76
2022/03/09 18:27:17;;;;;;;;;;;;;;;;;;4895484;29;20277;-76
2022/03/09 18:29:43;;;;;;;;;;;;;;;;;;4896717;29;19932;-75
2022/03/09 18:32:09;;;;;;;;;;;;;;;;;;4884658;29;19912;-77
2022/03/09 18:34:35;;;;;;;;;;;;;;;;;;4894188;29;20376;-78
2022/03/09 18:37:01;;;;;;;;;;;;;;;;;;4882600;29;19960;-76
2022/03/09 18:39:26;;;;;;;;;;;;;;;;;;4890052;29;19960;-78
2022/03/09 18:41:52;;;;;;;;;;;;;;;;;;4888594;29;19959;-78
2022/03/09 18:44:18;;;;;;;;;;;;;;;;;;4893228;29;20364;-76